sensor_id;sensor_type;location;lat;lon;timestamp;pressure;altitude;pressure_sealevel;temperature;humidity
67109;BME280;54027;50.786;7.058;2022-08-25T00:01:12;101239.06;;;19.92;55.52
67109;BME280;54027;50.786;7.058;2022-08-25T00:03:38;101237.47;;;19.90;55.90
67109;BME280;54027;50.786;7.058;2022-08-25T00:06:04;101241.09;;;19.87;56.59
67109;BME280;54027;50.786;7.058;2022-08-25T00:08:30;101237.53;;;19.88;55.88
67109;BME280;54027;50.786;7.058;2022-08-25T00:10:59;101234.97;;;19.87;55.14
67109;BME280;54027;50.786;7.058;2022-08-25T00:13:24;101230.63;;;19.86;54.42
67109;BME280;54027;50.786;7.058;2022-08-25T00:15:49;101228.00;;;19.86;55.09
67109;BME280;54027;50.786;7.058;2022-08-25T00:18:14;101230.56;;;19.87;55.18
67109;BME280;54027;50.786;7.058;2022-08-25T00:20:40;101237.69;;;19.85;53.84
67109;BME280;54027;50.786;7.058;2022-08-25T00:23:05;101229.94;;;19.82;55.03
67109;BME280;54027;50.786;7.058;2022-08-25T00:25:30;101229.16;;;19.80;53.48
67109;BME280;54027;50.786;7.058;2022-08-25T00:27:56;101230.88;;;19.81;54.05
67109;BME280;54027;50.786;7.058;2022-08-25T00:30:22;101231.81;;;19.80;54.53
67109;BME280;54027;50.786;7.058;2022-08-25T00:32:48;101231.09;;;19.76;54.50
67109;BME280;54027;50.786;7.058;2022-08-25T00:35:13;101242.44;;;19.78;54.43
67109;BME280;54027;50.786;7.058;2022-08-25T00:37:39;101239.88;;;19.77;54.59
67109;BME280;54027;50.786;7.058;2022-08-25T00:40:05;101228.56;;;19.75;54.16
67109;BME280;54027;50.786;7.058;2022-08-25T00:42:38;101232.81;;;19.77;53.52
67109;BME280;54027;50.786;7.058;2022-08-25T00:45:05;101234.75;;;19.74;53.51
67109;BME280;54027;50.786;7.058;2022-08-25T00:47:31;101226.84;;;19.74;53.19
67109;BME280;54027;50.786;7.058;2022-08-25T00:49:57;101230.25;;;19.76;53.38
67109;BME280;54027;50.786;7.058;2022-08-25T00:57:18;101229.88;;;19.84;51.54
67109;BME280;54027;50.786;7.058;2022-08-25T00:59:44;101228.84;;;19.86;51.01
67109;BME280;54027;50.786;7.058;2022-08-25T01:02:11;101230.56;;;19.87;51.10
67109;BME280;54027;50.786;7.058;2022-08-25T01:04:37;101229.88;;;19.84;51.92
67109;BME280;54027;50.786;7.058;2022-08-25T01:07:02;101230.72;;;19.84;50.83
67109;BME280;54027;50.786;7.058;2022-08-25T01:09:29;101237.78;;;19.84;51.77
67109;BME280;54027;50.786;7.058;2022-08-25T01:11:56;101228.16;;;19.83;52.43
67109;BME280;54027;50.786;7.058;2022-08-25T01:14:24;101235.44;;;19.77;53.31
67109;BME280;54027;50.786;7.058;2022-08-25T01:16:51;101229.63;;;19.71;53.87
67109;BME280;54027;50.786;7.058;2022-08-25T01:19:17;101226.25;;;19.69;53.73
67109;BME280;54027;50.786;7.058;2022-08-25T01:21:50;101231.50;;;19.69;52.62
67109;BME280;54027;50.786;7.058;2022-08-25T01:27:13;101241.44;;;19.64;53.72
67109;BME280;54027;50.786;7.058;2022-08-25T01:29:39;101235.47;;;19.60;53.62
67109;BME280;54027;50.786;7.058;2022-08-25T01:32:06;101233.00;;;19.57;53.47
67109;BME280;54027;50.786;7.058;2022-08-25T01:34:34;101236.66;;;19.55;53.59
67109;BME280;54027;50.786;7.058;2022-08-25T01:36:59;101237.56;;;19.54;53.53
67109;BME280;54027;50.786;7.058;2022-08-25T01:39:29;101236.66;;;19.55;53.80
67109;BME280;54027;50.786;7.058;2022-08-25T01:44:42;101235.94;;;19.51;53.53
67109;BME280;54027;50.786;7.058;2022-08-25T01:47:08;101232.44;;;19.51;53.82
67109;BME280;54027;50.786;7.058;2022-08-25T01:49:34;101231.69;;;19.49;53.66
67109;BME280;54027;50.786;7.058;2022-08-25T01:52:01;101231.84;;;19.46;53.70
67109;BME280;54027;50.786;7.058;2022-08-25T01:54:29;101224.84;;;19.45;53.32
67109;BME280;54027;50.786;7.058;2022-08-25T01:56:54;101229.25;;;19.44;52.83
67109;BME280;54027;50.786;7.058;2022-08-25T01:59:19;101232.91;;;19.42;53.46
67109;BME280;54027;50.786;7.058;2022-08-25T02:01:45;101235.59;;;19.40;54.06
67109;BME280;54027;50.786;7.058;2022-08-25T02:04:11;101236.56;;;19.39;53.77
67109;BME280;54027;50.786;7.058;2022-08-25T02:06:36;101235.94;;;19.34;53.21
67109;BME280;54027;50.786;7.058;2022-08-25T02:09:07;101231.50;;;19.35;53.58
67109;BME280;54027;50.786;7.058;2022-08-25T02:11:32;101242.13;;;19.33;53.30
67109;BME280;54027;50.786;7.058;2022-08-25T02:13:59;101245.69;;;19.32;53.51
67109;BME280;54027;50.786;7.058;2022-08-25T02:16:26;101242.13;;;19.33;53.99
67109;BME280;54027;50.786;7.058;2022-08-25T02:18:55;101241.22;;;19.34;54.70
67109;BME280;54027;50.786;7.058;2022-08-25T02:21:20;101246.53;;;19.33;54.43
67109;BME280;54027;50.786;7.058;2022-08-25T02:23:46;101249.25;;;19.31;53.90
67109;BME280;54027;50.786;7.058;2022-08-25T02:26:11;101243.25;;;19.28;53.98
67109;BME280;54027;50.786;7.058;2022-08-25T02:28:40;101244.97;;;19.29;52.98
67109;BME280;54027;50.786;7.058;2022-08-25T02:31:06;101243.19;;;19.29;52.19
67109;BME280;54027;50.786;7.058;2022-08-25T02:33:31;101241.22;;;19.34;52.82
67109;BME280;54027;50.786;7.058;2022-08-25T02:35:57;101242.19;;;19.32;52.93
67109;BME280;54027;50.786;7.058;2022-08-25T02:38:23;101250.25;;;19.29;53.06
67109;BME280;54027;50.786;7.058;2022-08-25T02:40:48;101248.53;;;19.28;53.05
67109;BME280;54027;50.786;7.058;2022-08-25T02:43:15;101248.53;;;19.28;52.92
67109;BME280;54027;50.786;7.058;2022-08-25T02:45:40;101245.03;;;19.27;52.98
67109;BME280;54027;50.786;7.058;2022-08-25T02:48:06;101246.91;;;19.25;53.80
67109;BME280;54027;50.786;7.058;2022-08-25T02:50:31;101236.38;;;19.25;53.51
67109;BME280;54027;50.786;7.058;2022-08-25T02:52:57;101238.19;;;19.23;53.72
67109;BME280;54027;50.786;7.058;2022-08-25T02:55:22;101236.56;;;19.20;53.66
67109;BME280;54027;50.786;7.058;2022-08-25T02:57:48;101228.66;;;19.20;53.48
67109;BME280;54027;50.786;7.058;2022-08-25T03:00:15;101226.91;;;19.21;53.40
67109;BME280;54027;50.786;7.058;2022-08-25T03:02:42;101225.28;;;19.18;53.06
67109;BME280;54027;50.786;7.058;2022-08-25T03:05:08;101223.56;;;19.17;52.71
67109;BME280;54027;50.786;7.058;2022-08-25T03:07:34;101221.06;;;19.14;53.10
67109;BME280;54027;50.786;7.058;2022-08-25T03:10:03;101219.28;;;19.15;53.35
67109;BME280;54027;50.786;7.058;2022-08-25T03:12:29;101215.94;;;19.11;53.61
67109;BME280;54027;50.786;7.058;2022-08-25T03:14:55;101211.44;;;19.13;53.25
67109;BME280;54027;50.786;7.058;2022-08-25T03:17:20;101204.50;;;19.12;53.64
67109;BME280;54027;50.786;7.058;2022-08-25T03:19:45;101202.78;;;19.11;53.45
67109;BME280;54027;50.786;7.058;2022-08-25T03:22:10;101206.38;;;19.10;53.44
67109;BME280;54027;50.786;7.058;2022-08-25T03:24:36;101197.53;;;19.11;53.35
67109;BME280;54027;50.786;7.058;2022-08-25T03:27:01;101204.72;;;19.08;53.01
67109;BME280;54027;50.786;7.058;2022-08-25T03:29:28;101200.41;;;19.07;53.20
67109;BME280;54027;50.786;7.058;2022-08-25T03:31:55;101206.53;;;19.07;53.34
67109;BME280;54027;50.786;7.058;2022-08-25T03:34:22;101198.78;;;19.04;53.07
67109;BME280;54027;50.786;7.058;2022-08-25T03:36:49;101202.22;;;19.05;53.43
67109;BME280;54027;50.786;7.058;2022-08-25T03:39:15;101202.31;;;19.03;53.39
67109;BME280;54027;50.786;7.058;2022-08-25T03:41:41;101202.38;;;19.02;54.02
67109;BME280;54027;50.786;7.058;2022-08-25T03:44:07;101204.25;;;19.00;53.98
67109;BME280;54027;50.786;7.058;2022-08-25T03:46:36;101196.34;;;19.00;53.79
67109;BME280;54027;50.786;7.058;2022-08-25T03:49:03;101192.84;;;18.99;53.82
67109;BME280;54027;50.786;7.058;2022-08-25T03:51:33;101190.31;;;18.98;53.88
67109;BME280;54027;50.786;7.058;2022-08-25T03:54:00;101186.72;;;18.99;53.50
67109;BME280;54027;50.786;7.058;2022-08-25T03:56:25;101187.59;;;18.99;53.80
67109;BME280;54027;50.786;7.058;2022-08-25T03:58:54;101182.47;;;18.96;54.18
67109;BME280;54027;50.786;7.058;2022-08-25T04:01:19;101179.94;;;18.95;53.96
67109;BME280;54027;50.786;7.058;2022-08-25T04:03:45;101173.88;;;18.93;54.26
67109;BME280;54027;50.786;7.058;2022-08-25T04:06:10;101170.31;;;18.94;53.67
67109;BME280;54027;50.786;7.058;2022-08-25T04:08:36;101176.50;;;18.93;54.17
67109;BME280;54027;50.786;7.058;2022-08-25T04:11:06;101180.09;;;18.92;53.85
67109;BME280;54027;50.786;7.058;2022-08-25T04:13:31;101181.84;;;18.91;54.25
67109;BME280;54027;50.786;7.058;2022-08-25T04:15:57;101184.63;;;18.88;54.13
67109;BME280;54027;50.786;7.058;2022-08-25T04:18:22;101179.38;;;18.88;54.29
67109;BME280;54027;50.786;7.058;2022-08-25T04:20:47;101178.50;;;18.88;53.70
67109;BME280;54027;50.786;7.058;2022-08-25T04:23:13;101178.75;;;18.83;53.58
67109;BME280;54027;50.786;7.058;2022-08-25T04:25:38;101187.56;;;18.82;54.13
67109;BME280;54027;50.786;7.058;2022-08-25T04:28:06;101189.44;;;18.80;54.29
67109;BME280;54027;50.786;7.058;2022-08-25T04:30:32;101179.81;;;18.79;54.64
67109;BME280;54027;50.786;7.058;2022-08-25T04:32:57;101182.44;;;18.79;54.64
67109;BME280;54027;50.786;7.058;2022-08-25T04:35:22;101179.75;;;18.81;54.59
67109;BME280;54027;50.786;7.058;2022-08-25T04:37:48;101179.66;;;18.82;54.99
67109;BME280;54027;50.786;7.058;2022-08-25T04:40:13;101176.31;;;18.79;54.88
67109;BME280;54027;50.786;7.058;2022-08-25T04:42:38;101185.94;;;18.80;54.95
67109;BME280;54027;50.786;7.058;2022-08-25T04:45:04;101184.94;;;18.82;54.84
67109;BME280;54027;50.786;7.058;2022-08-25T04:47:30;101186.09;;;18.77;54.95
67109;BME280;54027;50.786;7.058;2022-08-25T04:49:55;101179.97;;;18.76;54.91
67109;BME280;54027;50.786;7.058;2022-08-25T04:52:20;101182.44;;;18.79;54.83
67109;BME280;54027;50.786;7.058;2022-08-25T04:54:46;101180.72;;;18.78;54.83
67109;BME280;54027;50.786;7.058;2022-08-25T04:57:11;101178.19;;;18.77;55.08
67109;BME280;54027;50.786;7.058;2022-08-25T04:59:36;101179.81;;;18.79;55.52
67109;BME280;54027;50.786;7.058;2022-08-25T05:02:02;101177.13;;;18.81;55.23
67109;BME280;54027;50.786;7.058;2022-08-25T05:04:29;101178.03;;;18.80;55.28
67109;BME280;54027;50.786;7.058;2022-08-25T05:06:55;101180.72;;;18.78;55.78
67109;BME280;54027;50.786;7.058;2022-08-25T05:09:21;101180.81;;;18.77;55.45
67109;BME280;54027;50.786;7.058;2022-08-25T05:11:46;101182.38;;;18.81;55.38
67109;BME280;54027;50.786;7.058;2022-08-25T05:14:11;101177.13;;;18.81;55.58
67109;BME280;54027;50.786;7.058;2022-08-25T05:16:39;101182.31;;;18.82;55.27
67109;BME280;54027;50.786;7.058;2022-08-25T05:19:05;101175.97;;;18.86;54.93
67109;BME280;54027;50.786;7.058;2022-08-25T05:21:31;101176.84;;;18.87;55.33
67109;BME280;54027;50.786;7.058;2022-08-25T05:23:58;101172.53;;;18.84;55.11
67109;BME280;54027;50.786;7.058;2022-08-25T05:26:25;101168.84;;;18.88;55.51
67109;BME280;54027;50.786;7.058;2022-08-25T05:28:51;101171.63;;;18.85;55.83
67109;BME280;54027;50.786;7.058;2022-08-25T05:31:17;101166.34;;;18.85;56.03
67109;BME280;54027;50.786;7.058;2022-08-25T05:33:42;101169.00;;;18.85;56.06
67109;BME280;54027;50.786;7.058;2022-08-25T05:36:09;101173.09;;;18.91;55.81
67109;BME280;54027;50.786;7.058;2022-08-25T05:38:35;101162.50;;;18.92;56.53
67109;BME280;54027;50.786;7.058;2022-08-25T05:41:01;101166.06;;;18.91;57.01
67109;BME280;54027;50.786;7.058;2022-08-25T05:43:28;101171.38;;;18.90;56.74
67109;BME280;54027;50.786;7.058;2022-08-25T05:45:53;101165.16;;;18.92;57.07
67109;BME280;54027;50.786;7.058;2022-08-25T05:48:19;101162.34;;;18.95;56.61
67109;BME280;54027;50.786;7.058;2022-08-25T05:50:54;101156.00;;;18.99;57.01
67109;BME280;54027;50.786;7.058;2022-08-25T05:53:20;101153.44;;;18.98;57.40
67109;BME280;54027;50.786;7.058;2022-08-25T05:55:47;101151.59;;;19.00;57.17
67109;BME280;54027;50.786;7.058;2022-08-25T05:58:12;101149.72;;;19.02;57.02
67109;BME280;54027;50.786;7.058;2022-08-25T06:00:38;101147.88;;;19.04;57.58
67109;BME280;54027;50.786;7.058;2022-08-25T06:03:04;101145.25;;;19.04;57.63
67109;BME280;54027;50.786;7.058;2022-08-25T06:05:29;101148.75;;;19.04;58.35
67109;BME280;54027;50.786;7.058;2022-08-25T06:07:56;101148.59;;;19.07;57.68
67109;BME280;54027;50.786;7.058;2022-08-25T06:10:21;101144.94;;;19.10;57.33
67109;BME280;54027;50.786;7.058;2022-08-25T06:12:47;101158.78;;;19.13;57.51
67109;BME280;54027;50.786;7.058;2022-08-25T06:15:18;101156.09;;;19.15;57.16
67109;BME280;54027;50.786;7.058;2022-08-25T06:17:44;101150.72;;;19.16;56.58
67109;BME280;54027;50.786;7.058;2022-08-25T06:20:14;101156.84;;;19.17;57.97
67109;BME280;54027;50.786;7.058;2022-08-25T06:22:40;101160.13;;;19.22;56.37
67109;BME280;54027;50.786;7.058;2022-08-25T06:25:06;101151.94;;;19.28;55.98
67109;BME280;54027;50.786;7.058;2022-08-25T06:27:32;101152.84;;;19.27;56.25
67109;BME280;54027;50.786;7.058;2022-08-25T06:29:58;101152.78;;;19.29;55.90
67109;BME280;54027;50.786;7.058;2022-08-25T06:32:29;101161.38;;;19.32;55.51
67109;BME280;54027;50.786;7.058;2022-08-25T06:34:54;101163.97;;;19.34;55.81
67109;BME280;54027;50.786;7.058;2022-08-25T06:37:19;101170.84;;;19.36;55.06
67109;BME280;54027;50.786;7.058;2022-08-25T06:39:45;101173.22;;;19.41;55.09
67109;BME280;54027;50.786;7.058;2022-08-25T06:42:11;101177.56;;;19.42;55.29
67109;BME280;54027;50.786;7.058;2022-08-25T06:44:36;101173.16;;;19.42;55.97
67109;BME280;54027;50.786;7.058;2022-08-25T06:47:01;101169.56;;;19.43;55.59
67109;BME280;54027;50.786;7.058;2022-08-25T06:49:27;101167.59;;;19.48;54.82
67109;BME280;54027;50.786;7.058;2022-08-25T06:51:52;101175.50;;;19.48;56.35
67109;BME280;54027;50.786;7.058;2022-08-25T06:54:18;101173.72;;;19.49;55.65
67109;BME280;54027;50.786;7.058;2022-08-25T06:56:43;101185.88;;;19.51;59.29
67109;BME280;54027;50.786;7.058;2022-08-25T06:59:08;101177.09;;;19.51;56.79
67109;BME280;54027;50.786;7.058;2022-08-25T07:01:34;101176.84;;;19.55;55.15
67109;BME280;54027;50.786;7.058;2022-08-25T07:04:00;101170.59;;;19.58;54.99
67109;BME280;54027;50.786;7.058;2022-08-25T07:06:27;101161.84;;;19.57;55.87
67109;BME280;54027;50.786;7.058;2022-08-25T07:08:52;101161.75;;;19.59;55.40
67109;BME280;54027;50.786;7.058;2022-08-25T07:11:18;101171.38;;;19.60;55.66
67109;BME280;54027;50.786;7.058;2022-08-25T07:13:45;101171.13;;;19.64;55.51
67109;BME280;54027;50.786;7.058;2022-08-25T07:16:11;101159.66;;;19.65;55.39
67109;BME280;54027;50.786;7.058;2022-08-25T07:18:37;101155.22;;;19.66;55.34
67109;BME280;54027;50.786;7.058;2022-08-25T07:21:02;101160.56;;;19.64;57.09
67109;BME280;54027;50.786;7.058;2022-08-25T07:23:28;101153.34;;;19.68;55.84
67109;BME280;54027;50.786;7.058;2022-08-25T07:25:53;101158.63;;;19.68;55.93
67109;BME280;54027;50.786;7.058;2022-08-25T07:28:19;101158.41;;;19.72;56.17
67109;BME280;54027;50.786;7.058;2022-08-25T07:30:45;101154.91;;;19.72;55.43
67109;BME280;54027;50.786;7.058;2022-08-25T07:33:11;101165.13;;;19.78;55.13
67109;BME280;54027;50.786;7.058;2022-08-25T07:35:36;101166.81;;;19.79;55.44
67109;BME280;54027;50.786;7.058;2022-08-25T07:38:02;101156.38;;;19.77;55.42
67109;BME280;54027;50.786;7.058;2022-08-25T07:40:29;101160.72;;;19.78;56.34
67109;BME280;54027;50.786;7.058;2022-08-25T07:42:56;101164.81;;;19.84;56.16
67109;BME280;54027;50.786;7.058;2022-08-25T07:45:23;101161.84;;;19.90;55.79
67109;BME280;54027;50.786;7.058;2022-08-25T07:47:57;101163.84;;;19.85;56.05
67109;BME280;54027;50.786;7.058;2022-08-25T07:50:24;101162.94;;;19.86;56.46
67109;BME280;54027;50.786;7.058;2022-08-25T07:52:49;101162.00;;;19.87;57.41
67109;BME280;54027;50.786;7.058;2022-08-25T07:55:15;101165.84;;;19.82;58.44
67109;BME280;54027;50.786;7.058;2022-08-25T07:57:40;101162.06;;;19.86;57.85
67109;BME280;54027;50.786;7.058;2022-08-25T08:00:07;101154.44;;;19.97;57.53
67109;BME280;54027;50.786;7.058;2022-08-25T08:02:32;101157.16;;;19.95;57.59
67109;BME280;54027;50.786;7.058;2022-08-25T08:04:58;101154.03;;;20.04;57.24
67109;BME280;54027;50.786;7.058;2022-08-25T08:07:24;101155.22;;;19.99;57.58
67109;BME280;54027;50.786;7.058;2022-08-25T08:09:50;101154.53;;;19.95;59.73
67109;BME280;54027;50.786;7.058;2022-08-25T08:12:15;101154.97;;;20.03;57.90
67109;BME280;54027;50.786;7.058;2022-08-25T08:14:41;101153.34;;;20.01;60.32
67109;BME280;54027;50.786;7.058;2022-08-25T08:17:07;101151.56;;;20.01;57.82
67109;BME280;54027;50.786;7.058;2022-08-25T08:19:33;101151.56;;;20.01;58.38
67109;BME280;54027;50.786;7.058;2022-08-25T08:21:59;101143.81;;;19.98;58.94
67109;BME280;54027;50.786;7.058;2022-08-25T08:24:24;101138.28;;;20.03;59.14
67109;BME280;54027;50.786;7.058;2022-08-25T08:26:50;101141.41;;;19.94;59.68
67109;BME280;54027;50.786;7.058;2022-08-25T08:29:15;101137.47;;;20.02;61.29
67109;BME280;54027;50.786;7.058;2022-08-25T08:31:40;101130.81;;;19.95;61.38
67109;BME280;54027;50.786;7.058;2022-08-25T08:34:06;101125.94;;;20.03;61.49
67109;BME280;54027;50.786;7.058;2022-08-25T08:36:31;101123.06;;;19.92;61.43
67109;BME280;54027;50.786;7.058;2022-08-25T08:38:57;101111.75;;;20.06;59.22
67109;BME280;54027;50.786;7.058;2022-08-25T08:51:58;101109.75;;;20.11;60.39
67109;BME280;54027;50.786;7.058;2022-08-25T08:54:25;101105.19;;;20.14;61.21
67109;BME280;54027;50.786;7.058;2022-08-25T08:59:49;101114.94;;;20.12;61.52
67109;BME280;54027;50.786;7.058;2022-08-25T09:02:20;101099.97;;;20.28;59.25
67109;BME280;54027;50.786;7.058;2022-08-25T09:05:00;101097.75;;;20.37;58.70
67109;BME280;54027;50.786;7.058;2022-08-25T09:07:44;101104.75;;;20.22;60.68
67109;BME280;54027;50.786;7.058;2022-08-25T09:10:11;101095.03;;;20.22;60.44
67109;BME280;54027;50.786;7.058;2022-08-25T09:12:45;101096.47;;;20.12;61.71
67109;BME280;54027;50.786;7.058;2022-08-25T09:23:04;101081.91;;;20.21;60.04
67109;BME280;54027;50.786;7.058;2022-08-25T09:28:27;101085.34;;;20.23;61.58
67109;BME280;54027;50.786;7.058;2022-08-25T09:33:38;101071.38;;;20.21;61.79
67109;BME280;54027;50.786;7.058;2022-08-25T09:36:04;101064.19;;;20.39;59.40
67109;BME280;54027;50.786;7.058;2022-08-25T09:38:29;101058.78;;;20.26;59.65
67109;BME280;54027;50.786;7.058;2022-08-25T09:40:57;101064.94;;;20.11;61.48
67109;BME280;54027;50.786;7.058;2022-08-25T09:48:33;101057.25;;;20.22;60.10
67109;BME280;54027;50.786;7.058;2022-08-25T09:53:52;101052.13;;;20.34;59.82
67109;BME280;54027;50.786;7.058;2022-08-25T09:56:20;101047.56;;;20.22;60.68
67109;BME280;54027;50.786;7.058;2022-08-25T09:58:46;101038.09;;;20.34;59.73
67109;BME280;54027;50.786;7.058;2022-08-25T10:01:16;101042.97;;;20.10;62.45
67109;BME280;54027;50.786;7.058;2022-08-25T10:06:44;101048.06;;;20.13;62.45
67109;BME280;54027;50.786;7.058;2022-08-25T10:09:12;101030.59;;;20.26;60.43
67109;BME280;54027;50.786;7.058;2022-08-25T10:11:46;101045.09;;;20.19;62.14
67109;BME280;54027;50.786;7.058;2022-08-25T10:16:50;101028.91;;;20.25;60.55
67109;BME280;54027;50.786;7.058;2022-08-25T10:21:46;101039.31;;;20.13;62.93
67109;BME280;54027;50.786;7.058;2022-08-25T10:24:28;101028.59;;;20.16;63.64
67109;BME280;54027;50.786;7.058;2022-08-25T10:26:54;101021.56;;;20.30;60.14
67109;BME280;54027;50.786;7.058;2022-08-25T10:32:05;101020.88;;;20.43;59.42
67109;BME280;54027;50.786;7.058;2022-08-25T10:34:37;101014.84;;;20.41;59.77
67109;BME280;54027;50.786;7.058;2022-08-25T10:37:11;101016.69;;;20.39;62.35
67109;BME280;54027;50.786;7.058;2022-08-25T10:39:39;101014.91;;;20.69;57.88
67109;BME280;54027;50.786;7.058;2022-08-25T10:44:56;101005.94;;;20.57;58.10
67109;BME280;54027;50.786;7.058;2022-08-25T10:50:04;100999.44;;;20.33;63.15
67109;BME280;54027;50.786;7.058;2022-08-25T10:52:37;100991.38;;;20.50;62.00
67109;BME280;54027;50.786;7.058;2022-08-25T11:00:06;100993.41;;;20.31;63.45
67109;BME280;54027;50.786;7.058;2022-08-25T11:02:43;100988.88;;;20.33;60.52
67109;BME280;54027;50.786;7.058;2022-08-25T11:05:16;100982.84;;;20.31;63.70
67109;BME280;54027;50.786;7.058;2022-08-25T11:07:47;100974.94;;;20.91;55.70
67109;BME280;54027;50.786;7.058;2022-08-25T11:10:30;100981.00;;;20.47;61.05
67109;BME280;54027;50.786;7.058;2022-08-25T11:12:59;100979.38;;;20.30;63.81
67109;BME280;54027;50.786;7.058;2022-08-25T11:15:28;100979.28;;;20.32;63.80
67109;BME280;54027;50.786;7.058;2022-08-25T11:17:59;100963.69;;;21.01;54.83
67109;BME280;54027;50.786;7.058;2022-08-25T11:20:27;100978.38;;;20.47;63.33
67109;BME280;54027;50.786;7.058;2022-08-25T11:25:46;100969.22;;;20.39;64.42
67109;BME280;54027;50.786;7.058;2022-08-25T11:30:47;100967.28;;;20.56;63.16
67109;BME280;54027;50.786;7.058;2022-08-25T11:33:13;100963.75;;;20.42;64.16
67109;BME280;54027;50.786;7.058;2022-08-25T11:35:51;100959.09;;;20.61;60.21
67109;BME280;54027;50.786;7.058;2022-08-25T11:41:04;100959.78;;;20.78;60.27
67109;BME280;54027;50.786;7.058;2022-08-25T11:46:24;100953.03;;;20.45;63.38
67109;BME280;54027;50.786;7.058;2022-08-25T11:51:44;100951.34;;;20.44;63.87
67109;BME280;54027;50.786;7.058;2022-08-25T11:54:28;100946.31;;;20.39;64.40
67109;BME280;54027;50.786;7.058;2022-08-25T12:02:07;100936.72;;;20.38;64.43
67109;BME280;54027;50.786;7.058;2022-08-25T12:04:37;100927.00;;;20.39;64.42
67109;BME280;54027;50.786;7.058;2022-08-25T12:12:35;100918.06;;;20.41;60.69
67109;BME280;54027;50.786;7.058;2022-08-25T12:17:57;100913.34;;;20.90;54.41
67109;BME280;54027;50.786;7.058;2022-08-25T12:23:14;100908.25;;;20.87;55.75
67109;BME280;54027;50.786;7.058;2022-08-25T12:25:42;100914.22;;;20.61;63.00
67109;BME280;54027;50.786;7.058;2022-08-25T12:28:16;100913.44;;;20.45;64.10
67109;BME280;54027;50.786;7.058;2022-08-25T12:30:57;100913.75;;;20.68;63.02
67109;BME280;54027;50.786;7.058;2022-08-25T12:33:39;100910.06;;;20.71;62.20
67109;BME280;54027;50.786;7.058;2022-08-25T12:36:06;100912.22;;;20.94;58.95
67109;BME280;54027;50.786;7.058;2022-08-25T12:38:41;100918.66;;;20.60;62.95
67109;BME280;54027;50.786;7.058;2022-08-25T12:41:14;100911.84;;;20.56;62.88
67109;BME280;54027;50.786;7.058;2022-08-25T12:43:44;100903.47;;;20.50;63.54
67109;BME280;54027;50.786;7.058;2022-08-25T12:51:20;100892.19;;;20.76;57.86
67109;BME280;54027;50.786;7.058;2022-08-25T12:53:47;100882.50;;;21.60;51.59
67109;BME280;54027;50.786;7.058;2022-08-25T12:56:27;100881.22;;;21.38;51.14
67109;BME280;54027;50.786;7.058;2022-08-25T13:12:07;100876.03;;;20.38;63.76
67109;BME280;54027;50.786;7.058;2022-08-25T13:14:42;100867.56;;;20.75;58.69
67109;BME280;54027;50.786;7.058;2022-08-25T13:17:07;100853.19;;;21.36;52.74
67109;BME280;54027;50.786;7.058;2022-08-25T13:19:33;100855.84;;;21.36;53.28
67109;BME280;54027;50.786;7.058;2022-08-25T13:21:59;100866.34;;;20.95;61.14
67109;BME280;54027;50.786;7.058;2022-08-25T13:24:32;100867.28;;;20.66;62.43
67109;BME280;54027;50.786;7.058;2022-08-25T13:27:00;100857.00;;;20.61;62.53
67109;BME280;54027;50.786;7.058;2022-08-25T13:29:27;100858.25;;;20.56;62.71
67109;BME280;54027;50.786;7.058;2022-08-25T13:31:57;100857.81;;;20.92;59.04
67109;BME280;54027;50.786;7.058;2022-08-25T13:34:24;100851.75;;;20.61;62.60
67109;BME280;54027;50.786;7.058;2022-08-25T13:36:50;100851.81;;;20.60;62.82
67109;BME280;54027;50.786;7.058;2022-08-25T13:39:34;100851.16;;;20.56;63.28
67109;BME280;54027;50.786;7.058;2022-08-25T13:42:01;100847.75;;;20.54;63.87
67109;BME280;54027;50.786;7.058;2022-08-25T13:44:28;100848.63;;;20.55;63.63
67109;BME280;54027;50.786;7.058;2022-08-25T13:47:04;100841.25;;;20.60;60.19
67109;BME280;54027;50.786;7.058;2022-08-25T13:49:29;100841.06;;;20.63;63.36
67109;BME280;54027;50.786;7.058;2022-08-25T13:51:55;100841.25;;;20.60;63.57
67109;BME280;54027;50.786;7.058;2022-08-25T13:54:28;100835.09;;;21.16;57.11
67109;BME280;54027;50.786;7.058;2022-08-25T13:57:02;100829.66;;;21.05;61.75
67109;BME280;54027;50.786;7.058;2022-08-25T13:59:30;100834.75;;;21.08;61.49
67109;BME280;54027;50.786;7.058;2022-08-25T14:01:58;100833.50;;;21.13;61.25
67109;BME280;54027;50.786;7.058;2022-08-25T14:04:26;100825.25;;;20.91;62.24
67109;BME280;54027;50.786;7.058;2022-08-25T14:09:54;100825.31;;;20.75;62.65
67109;BME280;54027;50.786;7.058;2022-08-25T14:12:40;100812.31;;;21.81;50.73
67109;BME280;54027;50.786;7.058;2022-08-25T14:17:41;100826.00;;;20.79;62.36
67109;BME280;54027;50.786;7.058;2022-08-25T14:20:23;100806.94;;;21.56;50.81
67109;BME280;54027;50.786;7.058;2022-08-25T14:23:03;100823.72;;;21.01;60.77
67109;BME280;54027;50.786;7.058;2022-08-25T14:25:30;100826.50;;;20.85;62.11
67109;BME280;54027;50.786;7.058;2022-08-25T14:27:59;100818.34;;;20.74;62.34
67109;BME280;54027;50.786;7.058;2022-08-25T14:30:25;100825.22;;;20.77;62.21
67109;BME280;54027;50.786;7.058;2022-08-25T14:32:51;100829.00;;;20.73;62.71
67109;BME280;54027;50.786;7.058;2022-08-25T14:35:16;100813.06;;;20.74;62.67
67109;BME280;54027;50.786;7.058;2022-08-25T14:37:42;100817.09;;;20.80;61.80
67109;BME280;54027;50.786;7.058;2022-08-25T14:40:09;100812.41;;;20.71;62.92
67109;BME280;54027;50.786;7.058;2022-08-25T14:42:36;100807.59;;;20.63;62.93
67109;BME280;54027;50.786;7.058;2022-08-25T14:45:02;100806.94;;;20.74;61.02
67109;BME280;54027;50.786;7.058;2022-08-25T14:47:27;100802.00;;;21.37;51.81
67109;BME280;54027;50.786;7.058;2022-08-25T14:49:53;100809.41;;;21.32;54.95
67109;BME280;54027;50.786;7.058;2022-08-25T14:52:20;100787.22;;;22.51;42.68